sensor_id;sensor_type;location;lat;lon;timestamp;temperature;humidity
14093;DHT22;7123;49.468;10.992;2022-10-30T00:01:03;18.10;99.90
14093;DHT22;7123;49.468;10.992;2022-10-30T00:03:29;18.10;99.90
14093;DHT22;7123;49.468;10.992;2022-10-30T00:05:57;18.10;99.90
14093;DHT22;7123;49.468;10.992;2022-10-30T00:08:24;18.10;99.90
14093;DHT22;7123;49.468;10.992;2022-10-30T00:10:51;18.10;99.90
14093;DHT22;7123;49.468;10.992;2022-10-30T00:13:19;18.10;99.90
14093;DHT22;7123;49.468;10.992;2022-10-30T00:15:48;18.10;99.90
14093;DHT22;7123;49.468;10.992;2022-10-30T00:18:15;18.10;99.90
14093;DHT22;7123;49.468;10.992;2022-10-30T00:20:43;18.10;99.90
14093;DHT22;7123;49.468;10.992;2022-10-30T00:23:09;18.10;99.90
14093;DHT22;7123;49.468;10.992;2022-10-30T00:25:36;18.00;99.90
14093;DHT22;7123;49.468;10.992;2022-10-30T00:28:04;18.00;99.90
14093;DHT22;7123;49.468;10.992;2022-10-30T00:30:32;18.00;99.90
14093;DHT22;7123;49.468;10.992;2022-10-30T00:32:58;17.90;99.90
14093;DHT22;7123;49.468;10.992;2022-10-30T00:35:26;18.00;99.90
14093;DHT22;7123;49.468;10.992;2022-10-30T00:37:53;18.00;99.90
14093;DHT22;7123;49.468;10.992;2022-10-30T00:40:20;17.90;99.90
14093;DHT22;7123;49.468;10.992;2022-10-30T00:42:46;17.90;99.90
14093;DHT22;7123;49.468;10.992;2022-10-30T00:45:15;17.90;99.90
14093;DHT22;7123;49.468;10.992;2022-10-30T00:50:16;17.90;99.90
14093;DHT22;7123;49.468;10.992;2022-10-30T00:53:11;17.90;99.90
14093;DHT22;7123;49.468;10.992;2022-10-30T00:55:42;17.80;99.90
14093;DHT22;7123;49.468;10.992;2022-10-30T00:58:15;17.80;99.90
14093;DHT22;7123;49.468;10.992;2022-10-30T01:00:46;17.90;99.90
14093;DHT22;7123;49.468;10.992;2022-10-30T01:03:14;17.80;99.90
14093;DHT22;7123;49.468;10.992;2022-10-30T01:05:42;17.80;99.90
14093;DHT22;7123;49.468;10.992;2022-10-30T01:08:09;17.80;99.90
14093;DHT22;7123;49.468;10.992;2022-10-30T01:10:37;17.80;99.90
14093;DHT22;7123;49.468;10.992;2022-10-30T01:13:04;17.80;99.90
14093;DHT22;7123;49.468;10.992;2022-10-30T01:15:35;17.80;99.90
14093;DHT22;7123;49.468;10.992;2022-10-30T01:21:13;17.80;99.90
14093;DHT22;7123;49.468;10.992;2022-10-30T01:30:23;17.80;99.90
14093;DHT22;7123;49.468;10.992;2022-10-30T01:35:39;17.70;99.90
14093;DHT22;7123;49.468;10.992;2022-10-30T01:38:19;17.70;99.90
14093;DHT22;7123;49.468;10.992;2022-10-30T01:40:48;17.70;99.90
14093;DHT22;7123;49.468;10.992;2022-10-30T01:43:15;17.70;99.90
14093;DHT22;7123;49.468;10.992;2022-10-30T01:46:01;17.70;99.90
14093;DHT22;7123;49.468;10.992;2022-10-30T01:51:37;17.70;99.90
14093;DHT22;7123;49.468;10.992;2022-10-30T01:54:34;17.70;99.90
14093;DHT22;7123;49.468;10.992;2022-10-30T01:59:47;17.70;99.90
14093;DHT22;7123;49.468;10.992;2022-10-30T02:02:15;17.70;99.90
14093;DHT22;7123;49.468;10.992;2022-10-30T02:04:42;17.70;99.90
14093;DHT22;7123;49.468;10.992;2022-10-30T02:07:10;17.60;99.90
14093;DHT22;7123;49.468;10.992;2022-10-30T02:09:38;17.60;99.90
14093;DHT22;7123;49.468;10.992;2022-10-30T02:12:06;17.60;99.90
14093;DHT22;7123;49.468;10.992;2022-10-30T02:14:37;17.60;99.90
14093;DHT22;7123;49.468;10.992;2022-10-30T02:17:06;17.60;99.90
14093;DHT22;7123;49.468;10.992;2022-10-30T02:19:33;17.60;99.90
14093;DHT22;7123;49.468;10.992;2022-10-30T02:22:00;17.70;99.90
14093;DHT22;7123;49.468;10.992;2022-10-30T02:24:28;17.60;99.90
14093;DHT22;7123;49.468;10.992;2022-10-30T02:26:55;17.70;99.90
14093;DHT22;7123;49.468;10.992;2022-10-30T02:29:21;17.60;99.90
14093;DHT22;7123;49.468;10.992;2022-10-30T02:31:48;17.60;99.90
14093;DHT22;7123;49.468;10.992;2022-10-30T02:34:15;17.60;99.90
14093;DHT22;7123;49.468;10.992;2022-10-30T02:36:42;17.50;99.90
14093;DHT22;7123;49.468;10.992;2022-10-30T02:39:09;17.60;99.90
14093;DHT22;7123;49.468;10.992;2022-10-30T02:41:36;17.60;99.90
14093;DHT22;7123;49.468;10.992;2022-10-30T02:44:03;17.60;99.90
14093;DHT22;7123;49.468;10.992;2022-10-30T02:46:30;17.60;99.90
14093;DHT22;7123;49.468;10.992;2022-10-30T02:48:56;17.60;99.90
14093;DHT22;7123;49.468;10.992;2022-10-30T02:51:23;17.60;99.90
14093;DHT22;7123;49.468;10.992;2022-10-30T02:53:50;17.60;99.90
14093;DHT22;7123;49.468;10.992;2022-10-30T02:56:16;17.60;99.90
14093;DHT22;7123;49.468;10.992;2022-10-30T02:58:43;17.60;99.90
14093;DHT22;7123;49.468;10.992;2022-10-30T03:01:14;17.60;99.90
14093;DHT22;7123;49.468;10.992;2022-10-30T03:03:42;17.60;99.90
14093;DHT22;7123;49.468;10.992;2022-10-30T03:06:13;17.50;99.90
14093;DHT22;7123;49.468;10.992;2022-10-30T03:08:41;17.50;99.90
14093;DHT22;7123;49.468;10.992;2022-10-30T03:11:11;17.60;99.90
14093;DHT22;7123;49.468;10.992;2022-10-30T03:13:38;17.60;99.90
14093;DHT22;7123;49.468;10.992;2022-10-30T03:16:34;17.50;99.90
14093;DHT22;7123;49.468;10.992;2022-10-30T03:19:01;17.50;99.90
14093;DHT22;7123;49.468;10.992;2022-10-30T03:21:28;17.50;99.90
14093;DHT22;7123;49.468;10.992;2022-10-30T03:23:55;17.50;99.90
14093;DHT22;7123;49.468;10.992;2022-10-30T03:26:22;17.40;99.90
14093;DHT22;7123;49.468;10.992;2022-10-30T03:28:49;17.40;99.90
14093;DHT22;7123;49.468;10.992;2022-10-30T03:31:17;17.40;99.90
14093;DHT22;7123;49.468;10.992;2022-10-30T03:33:44;17.40;99.90
14093;DHT22;7123;49.468;10.992;2022-10-30T03:36:12;17.30;99.90
14093;DHT22;7123;49.468;10.992;2022-10-30T03:38:39;17.40;99.90
14093;DHT22;7123;49.468;10.992;2022-10-30T03:41:06;17.40;99.90
14093;DHT22;7123;49.468;10.992;2022-10-30T03:43:32;17.30;99.90
14093;DHT22;7123;49.468;10.992;2022-10-30T03:45:59;17.30;99.90
14093;DHT22;7123;49.468;10.992;2022-10-30T03:48:27;17.40;99.90
14093;DHT22;7123;49.468;10.992;2022-10-30T03:50:55;17.40;99.90
14093;DHT22;7123;49.468;10.992;2022-10-30T03:53:23;17.40;99.90
14093;DHT22;7123;49.468;10.992;2022-10-30T03:55:55;17.30;99.90
14093;DHT22;7123;49.468;10.992;2022-10-30T03:58:22;17.40;99.90
14093;DHT22;7123;49.468;10.992;2022-10-30T04:00:48;17.40;99.90
14093;DHT22;7123;49.468;10.992;2022-10-30T04:03:15;17.30;99.90
14093;DHT22;7123;49.468;10.992;2022-10-30T04:05:42;17.30;99.90
14093;DHT22;7123;49.468;10.992;2022-10-30T04:08:12;17.30;99.90
14093;DHT22;7123;49.468;10.992;2022-10-30T04:10:43;17.30;99.90
14093;DHT22;7123;49.468;10.992;2022-10-30T04:13:11;17.30;99.90
14093;DHT22;7123;49.468;10.992;2022-10-30T04:15:39;17.30;99.90
14093;DHT22;7123;49.468;10.992;2022-10-30T04:18:06;17.30;99.90
14093;DHT22;7123;49.468;10.992;2022-10-30T04:20:33;17.30;99.90
14093;DHT22;7123;49.468;10.992;2022-10-30T04:23:02;17.30;99.90
14093;DHT22;7123;49.468;10.992;2022-10-30T04:25:29;17.30;99.90
14093;DHT22;7123;49.468;10.992;2022-10-30T04:27:56;17.20;99.90
14093;DHT22;7123;49.468;10.992;2022-10-30T04:30:24;17.30;99.90
14093;DHT22;7123;49.468;10.992;2022-10-30T04:32:56;17.20;99.90
14093;DHT22;7123;49.468;10.992;2022-10-30T04:35:26;17.20;99.90
14093;DHT22;7123;49.468;10.992;2022-10-30T04:37:54;17.20;99.90
14093;DHT22;7123;49.468;10.992;2022-10-30T04:40:24;17.20;99.90
14093;DHT22;7123;49.468;10.992;2022-10-30T04:42:51;17.20;99.90
14093;DHT22;7123;49.468;10.992;2022-10-30T04:45:18;17.20;99.90
14093;DHT22;7123;49.468;10.992;2022-10-30T04:47:45;17.20;99.90
14093;DHT22;7123;49.468;10.992;2022-10-30T04:50:13;17.20;99.90
14093;DHT22;7123;49.468;10.992;2022-10-30T04:52:40;17.20;99.90
14093;DHT22;7123;49.468;10.992;2022-10-30T04:55:08;17.20;99.90
14093;DHT22;7123;49.468;10.992;2022-10-30T04:57:35;17.20;99.90
14093;DHT22;7123;49.468;10.992;2022-10-30T05:00:06;17.20;99.90
14093;DHT22;7123;49.468;10.992;2022-10-30T05:02:34;17.20;99.90
14093;DHT22;7123;49.468;10.992;2022-10-30T05:05:03;17.10;99.90
14093;DHT22;7123;49.468;10.992;2022-10-30T05:07:30;17.00;99.90
14093;DHT22;7123;49.468;10.992;2022-10-30T05:09:57;17.00;99.90
14093;DHT22;7123;49.468;10.992;2022-10-30T05:12:24;17.00;99.90
14093;DHT22;7123;49.468;10.992;2022-10-30T05:14:50;17.00;99.90
14093;DHT22;7123;49.468;10.992;2022-10-30T05:17:17;17.00;99.90
14093;DHT22;7123;49.468;10.992;2022-10-30T05:19:44;17.00;99.90
14093;DHT22;7123;49.468;10.992;2022-10-30T05:22:11;17.00;99.90
14093;DHT22;7123;49.468;10.992;2022-10-30T05:24:38;17.00;99.90
14093;DHT22;7123;49.468;10.992;2022-10-30T05:27:05;17.00;99.90
14093;DHT22;7123;49.468;10.992;2022-10-30T05:29:31;17.10;99.90
14093;DHT22;7123;49.468;10.992;2022-10-30T05:31:58;17.00;99.90
14093;DHT22;7123;49.468;10.992;2022-10-30T05:34:25;17.10;99.90
14093;DHT22;7123;49.468;10.992;2022-10-30T05:36:51;17.00;99.90
14093;DHT22;7123;49.468;10.992;2022-10-30T05:39:18;17.00;99.90
14093;DHT22;7123;49.468;10.992;2022-10-30T05:41:44;17.00;99.90
14093;DHT22;7123;49.468;10.992;2022-10-30T05:44:11;17.00;99.90
14093;DHT22;7123;49.468;10.992;2022-10-30T05:46:38;16.90;99.90
14093;DHT22;7123;49.468;10.992;2022-10-30T05:49:04;17.00;99.90
14093;DHT22;7123;49.468;10.992;2022-10-30T05:51:31;16.90;99.90
14093;DHT22;7123;49.468;10.992;2022-10-30T05:54:05;16.80;99.90
14093;DHT22;7123;49.468;10.992;2022-10-30T05:56:32;16.90;99.90
14093;DHT22;7123;49.468;10.992;2022-10-30T05:58:58;16.80;99.90
14093;DHT22;7123;49.468;10.992;2022-10-30T06:01:25;16.80;99.90
14093;DHT22;7123;49.468;10.992;2022-10-30T06:03:52;16.90;99.90
14093;DHT22;7123;49.468;10.992;2022-10-30T06:06:18;16.90;99.90
14093;DHT22;7123;49.468;10.992;2022-10-30T06:08:45;16.90;99.90
14093;DHT22;7123;49.468;10.992;2022-10-30T06:11:12;16.80;99.90
14093;DHT22;7123;49.468;10.992;2022-10-30T06:13:38;17.00;99.90
14093;DHT22;7123;49.468;10.992;2022-10-30T06:16:05;16.90;99.90
14093;DHT22;7123;49.468;10.992;2022-10-30T06:18:32;16.80;99.90
14093;DHT22;7123;49.468;10.992;2022-10-30T06:20:59;16.80;99.90
14093;DHT22;7123;49.468;10.992;2022-10-30T06:23:25;16.80;99.90
14093;DHT22;7123;49.468;10.992;2022-10-30T06:25:52;16.80;99.90
14093;DHT22;7123;49.468;10.992;2022-10-30T06:28:19;16.90;99.90
14093;DHT22;7123;49.468;10.992;2022-10-30T06:30:45;16.90;99.90
14093;DHT22;7123;49.468;10.992;2022-10-30T06:33:12;16.90;99.90
14093;DHT22;7123;49.468;10.992;2022-10-30T06:35:39;16.90;99.90
14093;DHT22;7123;49.468;10.992;2022-10-30T06:38:06;16.90;99.90
14093;DHT22;7123;49.468;10.992;2022-10-30T06:40:34;16.90;99.90
14093;DHT22;7123;49.468;10.992;2022-10-30T06:43:00;16.90;99.90
14093;DHT22;7123;49.468;10.992;2022-10-30T06:45:27;16.90;99.90
14093;DHT22;7123;49.468;10.992;2022-10-30T06:47:54;16.90;99.90
14093;DHT22;7123;49.468;10.992;2022-10-30T06:50:21;16.90;99.90
14093;DHT22;7123;49.468;10.992;2022-10-30T06:52:49;16.90;99.90
14093;DHT22;7123;49.468;10.992;2022-10-30T06:55:16;16.90;99.90
14093;DHT22;7123;49.468;10.992;2022-10-30T06:57:43;16.90;99.90
14093;DHT22;7123;49.468;10.992;2022-10-30T07:00:10;16.90;99.90
14093;DHT22;7123;49.468;10.992;2022-10-30T07:02:37;16.90;99.90
14093;DHT22;7123;49.468;10.992;2022-10-30T07:05:04;16.90;99.90
14093;DHT22;7123;49.468;10.992;2022-10-30T07:07:31;16.90;99.90
14093;DHT22;7123;49.468;10.992;2022-10-30T07:09:57;16.90;99.90
14093;DHT22;7123;49.468;10.992;2022-10-30T07:12:24;16.90;99.90
14093;DHT22;7123;49.468;10.992;2022-10-30T07:14:51;16.90;99.90
14093;DHT22;7123;49.468;10.992;2022-10-30T07:17:17;16.90;99.90
14093;DHT22;7123;49.468;10.992;2022-10-30T07:19:48;16.90;99.90
14093;DHT22;7123;49.468;10.992;2022-10-30T07:22:15;16.90;99.90
14093;DHT22;7123;49.468;10.992;2022-10-30T07:24:42;16.90;99.90
14093;DHT22;7123;49.468;10.992;2022-10-30T07:27:08;16.90;99.90
14093;DHT22;7123;49.468;10.992;2022-10-30T07:29:35;16.90;99.90
14093;DHT22;7123;49.468;10.992;2022-10-30T07:32:02;16.90;99.90
14093;DHT22;7123;49.468;10.992;2022-10-30T07:34:29;16.90;99.90
14093;DHT22;7123;49.468;10.992;2022-10-30T07:36:56;17.00;99.90
14093;DHT22;7123;49.468;10.992;2022-10-30T07:39:23;16.90;99.90
14093;DHT22;7123;49.468;10.992;2022-10-30T07:41:50;16.90;99.90
14093;DHT22;7123;49.468;10.992;2022-10-30T07:44:16;16.90;99.90
14093;DHT22;7123;49.468;10.992;2022-10-30T07:46:43;16.90;99.90
14093;DHT22;7123;49.468;10.992;2022-10-30T07:49:09;16.90;99.90
14093;DHT22;7123;49.468;10.992;2022-10-30T07:51:36;16.90;99.90
14093;DHT22;7123;49.468;10.992;2022-10-30T07:54:03;16.90;99.90
14093;DHT22;7123;49.468;10.992;2022-10-30T07:56:29;16.90;99.90
14093;DHT22;7123;49.468;10.992;2022-10-30T07:58:56;16.80;99.90
14093;DHT22;7123;49.468;10.992;2022-10-30T08:01:23;16.90;99.90
14093;DHT22;7123;49.468;10.992;2022-10-30T08:03:49;16.80;99.90
14093;DHT22;7123;49.468;10.992;2022-10-30T08:06:16;16.80;99.90
14093;DHT22;7123;49.468;10.992;2022-10-30T08:08:48;16.80;99.90
14093;DHT22;7123;49.468;10.992;2022-10-30T08:11:15;16.80;99.90
14093;DHT22;7123;49.468;10.992;2022-10-30T08:13:41;16.80;99.90
14093;DHT22;7123;49.468;10.992;2022-10-30T08:16:08;16.80;99.90
14093;DHT22;7123;49.468;10.992;2022-10-30T08:18:34;16.80;99.90
14093;DHT22;7123;49.468;10.992;2022-10-30T08:21:01;16.80;99.90
14093;DHT22;7123;49.468;10.992;2022-10-30T08:23:28;16.90;99.90
14093;DHT22;7123;49.468;10.992;2022-10-30T08:25:56;16.90;99.90
14093;DHT22;7123;49.468;10.992;2022-10-30T08:28:26;16.90;99.90
14093;DHT22;7123;49.468;10.992;2022-10-30T08:30:59;16.90;99.90
14093;DHT22;7123;49.468;10.992;2022-10-30T08:33:27;16.90;99.90
14093;DHT22;7123;49.468;10.992;2022-10-30T08:35:55;17.00;99.90
14093;DHT22;7123;49.468;10.992;2022-10-30T08:38:22;17.00;99.90
14093;DHT22;7123;49.468;10.992;2022-10-30T08:40:49;17.10;99.90
14093;DHT22;7123;49.468;10.992;2022-10-30T08:43:16;17.10;99.90
14093;DHT22;7123;49.468;10.992;2022-10-30T08:45:43;17.10;99.90
14093;DHT22;7123;49.468;10.992;2022-10-30T08:48:12;17.20;99.90
14093;DHT22;7123;49.468;10.992;2022-10-30T08:50:39;17.20;99.90
14093;DHT22;7123;49.468;10.992;2022-10-30T08:53:10;17.20;99.90
14093;DHT22;7123;49.468;10.992;2022-10-30T08:55:37;17.20;99.90
14093;DHT22;7123;49.468;10.992;2022-10-30T08:58:04;17.30;99.90
14093;DHT22;7123;49.468;10.992;2022-10-30T09:00:32;17.30;99.90
14093;DHT22;7123;49.468;10.992;2022-10-30T09:02:59;17.40;99.90
14093;DHT22;7123;49.468;10.992;2022-10-30T09:05:27;17.40;99.90
14093;DHT22;7123;49.468;10.992;2022-10-30T09:07:55;17.50;99.90
14093;DHT22;7123;49.468;10.992;2022-10-30T09:10:23;17.50;99.90
14093;DHT22;7123;49.468;10.992;2022-10-30T09:12:54;17.50;99.90
14093;DHT22;7123;49.468;10.992;2022-10-30T09:15:21;17.60;99.90
14093;DHT22;7123;49.468;10.992;2022-10-30T09:17:55;17.60;99.90
14093;DHT22;7123;49.468;10.992;2022-10-30T09:20:23;17.60;99.90
14093;DHT22;7123;49.468;10.992;2022-10-30T09:22:49;17.70;99.90
14093;DHT22;7123;49.468;10.992;2022-10-30T09:25:16;17.80;99.90
14093;DHT22;7123;49.468;10.992;2022-10-30T09:27:43;17.80;99.90
14093;DHT22;7123;49.468;10.992;2022-10-30T09:30:10;17.80;99.90
14093;DHT22;7123;49.468;10.992;2022-10-30T09:32:37;17.80;99.90
14093;DHT22;7123;49.468;10.992;2022-10-30T09:35:05;17.90;99.90
14093;DHT22;7123;49.468;10.992;2022-10-30T09:37:38;17.90;99.90
14093;DHT22;7123;49.468;10.992;2022-10-30T09:40:06;17.90;99.90
14093;DHT22;7123;49.468;10.992;2022-10-30T09:42:43;17.90;99.90
14093;DHT22;7123;49.468;10.992;2022-10-30T09:48:11;18.00;99.90
14093;DHT22;7123;49.468;10.992;2022-10-30T09:56:46;18.10;99.90
14093;DHT22;7123;49.468;10.992;2022-10-30T09:59:30;18.10;99.90
14093;DHT22;7123;49.468;10.992;2022-10-30T10:02:30;18.20;99.90
14093;DHT22;7123;49.468;10.992;2022-10-30T10:05:02;18.20;99.90
14093;DHT22;7123;49.468;10.992;2022-10-30T10:07:44;18.20;99.90
14093;DHT22;7123;49.468;10.992;2022-10-30T10:10:44;18.30;99.90
14093;DHT22;7123;49.468;10.992;2022-10-30T10:13:31;18.30;99.90
14093;DHT22;7123;49.468;10.992;2022-10-30T10:16:16;18.40;99.90
14093;DHT22;7123;49.468;10.992;2022-10-30T10:18:46;18.40;99.90
14093;DHT22;7123;49.468;10.992;2022-10-30T10:21:22;18.40;99.90
14093;DHT22;7123;49.468;10.992;2022-10-30T10:24:01;18.40;99.90
14093;DHT22;7123;49.468;10.992;2022-10-30T10:26:46;18.50;99.90
14093;DHT22;7123;49.468;10.992;2022-10-30T10:49:24;18.70;99.90
14093;DHT22;7123;49.468;10.992;2022-10-30T10:52:24;18.80;99.90
14093;DHT22;7123;49.468;10.992;2022-10-30T10:54:59;18.80;99.90
14093;DHT22;7123;49.468;10.992;2022-10-30T10:57:32;18.90;99.90
14093;DHT22;7123;49.468;10.992;2022-10-30T11:00:06;18.90;99.90
14093;DHT22;7123;49.468;10.992;2022-10-30T11:05:12;19.00;99.90
14093;DHT22;7123;49.468;10.992;2022-10-30T11:07:49;19.10;99.90
14093;DHT22;7123;49.468;10.992;2022-10-30T11:10:17;19.10;99.90
14093;DHT22;7123;49.468;10.992;2022-10-30T11:12:45;19.20;99.90
14093;DHT22;7123;49.468;10.992;2022-10-30T11:15:34;19.30;99.90
14093;DHT22;7123;49.468;10.992;2022-10-30T11:18:08;19.30;99.90
14093;DHT22;7123;49.468;10.992;2022-10-30T11:23:37;19.50;99.90
14093;DHT22;7123;49.468;10.992;2022-10-30T11:26:27;19.60;99.90
14093;DHT22;7123;49.468;10.992;2022-10-30T11:29:11;19.70;99.90
14093;DHT22;7123;49.468;10.992;2022-10-30T11:31:41;19.70;99.90
14093;DHT22;7123;49.468;10.992;2022-10-30T11:36:45;19.80;99.90
14093;DHT22;7123;49.468;10.992;2022-10-30T11:39:23;19.90;99.90
14093;DHT22;7123;49.468;10.992;2022-10-30T11:42:05;20.00;99.90
14093;DHT22;7123;49.468;10.992;2022-10-30T11:44:43;20.00;99.90
14093;DHT22;7123;49.468;10.992;2022-10-30T11:47:12;20.10;99.90
14093;DHT22;7123;49.468;10.992;2022-10-30T11:50:00;20.10;99.90
14093;DHT22;7123;49.468;10.992;2022-10-30T11:52:28;20.20;99.90
14093;DHT22;7123;49.468;10.992;2022-10-30T11:54:59;20.20;99.90
14093;DHT22;7123;49.468;10.992;2022-10-30T11:57:40;20.20;99.90
14093;DHT22;7123;49.468;10.992;2022-10-30T12:02:43;20.30;99.90
14093;DHT22;7123;49.468;10.992;2022-10-30T12:05:40;20.30;99.90
14093;DHT22;7123;49.468;10.992;2022-10-30T12:08:17;20.40;99.90
14093;DHT22;7123;49.468;10.992;2022-10-30T12:11:03;20.50;99.90
14093;DHT22;7123;49.468;10.992;2022-10-30T12:13:38;20.60;99.90
14093;DHT22;7123;49.468;10.992;2022-10-30T12:16:15;20.60;99.90
14093;DHT22;7123;49.468;10.992;2022-10-30T12:19:06;20.70;99.90
14093;DHT22;7123;49.468;10.992;2022-10-30T12:21:44;20.70;99.90
14093;DHT22;7123;49.468;10.992;2022-10-30T12:24:32;20.70;99.90
14093;DHT22;7123;49.468;10.992;2022-10-30T12:27:02;20.80;99.90
14093;DHT22;7123;49.468;10.992;2022-10-30T12:32:44;21.00;99.90
14093;DHT22;7123;49.468;10.992;2022-10-30T12:35:25;21.00;99.90
14093;DHT22;7123;49.468;10.992;2022-10-30T12:37:53;21.00;99.90
14093;DHT22;7123;49.468;10.992;2022-10-30T12:40:29;21.10;99.90
14093;DHT22;7123;49.468;10.992;2022-10-30T12:43:04;21.00;99.90
14093;DHT22;7123;49.468;10.992;2022-10-30T12:45:40;21.20;99.90
14093;DHT22;7123;49.468;10.992;2022-10-30T12:53:28;21.30;99.90
14093;DHT22;7123;49.468;10.992;2022-10-30T12:56:18;21.30;99.90
14093;DHT22;7123;49.468;10.992;2022-10-30T13:01:44;21.40;99.90
14093;DHT22;7123;49.468;10.992;2022-10-30T13:04:34;21.40;99.90
14093;DHT22;7123;49.468;10.992;2022-10-30T13:12:38;21.60;99.90
14093;DHT22;7123;49.468;10.992;2022-10-30T13:17:48;21.80;99.90
14093;DHT22;7123;49.468;10.992;2022-10-30T13:20:15;21.80;99.90
14093;DHT22;7123;49.468;10.992;2022-10-30T13:23:22;22.00;99.90
14093;DHT22;7123;49.468;10.992;2022-10-30T13:29:06;22.30;99.90
14093;DHT22;7123;49.468;10.992;2022-10-30T13:32:16;22.50;99.90
14093;DHT22;7123;49.468;10.992;2022-10-30T13:35:04;22.60;99.90
14093;DHT22;7123;49.468;10.992;2022-10-30T13:37:48;22.60;99.90
14093;DHT22;7123;49.468;10.992;2022-10-30T13:40:37;22.60;99.90
14093;DHT22;7123;49.468;10.992;2022-10-30T13:49:41;22.60;99.90
14093;DHT22;7123;49.468;10.992;2022-10-30T13:52:17;22.60;99.90
14093;DHT22;7123;49.468;10.992;2022-10-30T13:57:38;23.00;99.90
14093;DHT22;7123;49.468;10.992;2022-10-30T14:00:19;23.10;99.90
14093;DHT22;7123;49.468;10.992;2022-10-30T14:03:01;23.30;99.90
14093;DHT22;7123;49.468;10.992;2022-10-30T14:08:32;23.60;99.90
14093;DHT22;7123;49.468;10.992;2022-10-30T14:11:04;23.80;99.90
14093;DHT22;7123;49.468;10.992;2022-10-30T14:16:04;23.80;99.90
14093;DHT22;7123;49.468;10.992;2022-10-30T14:18:41;23.80;99.90
14093;DHT22;7123;49.468;10.992;2022-10-30T14:21:29;23.70;99.90
14093;DHT22;7123;49.468;10.992;2022-10-30T14:24:49;23.70;99.90
14093;DHT22;7123;49.468;10.992;2022-10-30T14:29:38;23.60;99.90
14093;DHT22;7123;49.468;10.992;2022-10-30T14:34:45;23.70;99.90
14093;DHT22;7123;49.468;10.992;2022-10-30T14:39:50;23.70;99.90
14093;DHT22;7123;49.468;10.992;2022-10-30T14:42:31;23.70;99.90
14093;DHT22;7123;49.468;10.992;2022-10-30T14:47:58;23.50;99.90
14093;DHT22;7123;49.468;10.992;2022-10-30T14:58:32;23.00;99.90
14093;DHT22;7123;49.468;10.992;2022-10-30T15:06:36;22.80;99.90
14093;DHT22;7123;49.468;10.992;2022-10-30T15:09:36;22.60;99.90
14093;DHT22;7123;49.468;10.992;2022-10-30T15:14:54;22.40;99.90
14093;DHT22;7123;49.468;10.992;2022-10-30T15:17:32;22.30;99.90
14093;DHT22;7123;49.468;10.992;2022-10-30T15:20:02;22.30;99.90
14093;DHT22;7123;49.468;10.992;2022-10-30T15:22:31;22.20;99.90
14093;DHT22;7123;49.468;10.992;2022-10-30T15:24:58;22.10;99.90
14093;DHT22;7123;49.468;10.992;2022-10-30T15:27:25;22.10;99.90
14093;DHT22;7123;49.468;10.992;2022-10-30T15:29:55;22.10;99.90
14093;DHT22;7123;49.468;10.992;2022-10-30T15:32:23;22.00;99.90
14093;DHT22;7123;49.468;10.992;2022-10-30T15:34:58;22.00;99.90
14093;DHT22;7123;49.468;10.992;2022-10-30T15:37:31;21.90;99.90
14093;DHT22;7123;49.468;10.992;2022-10-30T15:42:41;21.80;99.90
14093;DHT22;7123;49.468;10.992;2022-10-30T15:45:26;21.70;99.90
14093;DHT22;7123;49.468;10.992;2022-10-30T15:48:21;21.60;99.90
14093;DHT22;7123;49.468;10.992;2022-10-30T15:51:14;21.60;99.90
14093;DHT22;7123;49.468;10.992;2022-10-30T15:56:36;21.50;99.90
14093;DHT22;7123;49.468;10.992;2022-10-30T15:59:27;21.40;99.90
14093;DHT22;7123;49.468;10.992;2022-10-30T16:01:56;21.30;99.90
14093;DHT22;7123;49.468;10.992;2022-10-30T16:04:24;21.30;99.90
14093;DHT22;7123;49.468;10.992;2022-10-30T16:06:53;21.20;99.90
14093;DHT22;7123;49.468;10.992;2022-10-30T16:09:20;21.30;99.90
14093;DHT22;7123;49.468;10.992;2022-10-30T16:11:49;21.20;99.90
14093;DHT22;7123;49.468;10.992;2022-10-30T16:14:24;21.20;99.90
14093;DHT22;7123;49.468;10.992;2022-10-30T16:16:53;21.20;99.90
14093;DHT22;7123;49.468;10.992;2022-10-30T16:19:28;21.10;99.90
14093;DHT22;7123;49.468;10.992;2022-10-30T16:21:56;21.20;99.90
14093;DHT22;7123;49.468;10.992;2022-10-30T16:24:34;21.10;99.90
14093;DHT22;7123;49.468;10.992;2022-10-30T16:27:05;21.00;99.90
14093;DHT22;7123;49.468;10.992;2022-10-30T16:29:33;21.00;99.90
14093;DHT22;7123;49.468;10.992;2022-10-30T16:32:00;20.90;99.90
14093;DHT22;7123;49.468;10.992;2022-10-30T16:34:30;20.80;99.90
14093;DHT22;7123;49.468;10.992;2022-10-30T16:37:04;20.70;99.90
14093;DHT22;7123;49.468;10.992;2022-10-30T16:39:32;20.70;99.90
14093;DHT22;7123;49.468;10.992;2022-10-30T16:42:01;20.70;99.90
14093;DHT22;7123;49.468;10.992;2022-10-30T16:44:30;20.70;99.90
14093;DHT22;7123;49.468;10.992;2022-10-30T16:47:24;20.70;99.90
14093;DHT22;7123;49.468;10.992;2022-10-30T16:49:53;20.70;99.90
14093;DHT22;7123;49.468;10.992;2022-10-30T16:52:29;20.70;99.90
14093;DHT22;7123;49.468;10.992;2022-10-30T16:55:03;20.60;99.90
14093;DHT22;7123;49.468;10.992;2022-10-30T16:57:34;20.60;99.90
14093;DHT22;7123;49.468;10.992;2022-10-30T17:00:03;20.60;99.90
14093;DHT22;7123;49.468;10.992;2022-10-30T17:02:34;20.50;99.90
14093;DHT22;7123;49.468;10.992;2022-10-30T17:07:54;20.40;99.90
14093;DHT22;7123;49.468;10.992;2022-10-30T17:10:56;20.40;99.90
14093;DHT22;7123;49.468;10.992;2022-10-30T17:13:35;20.40;99.90
14093;DHT22;7123;49.468;10.992;2022-10-30T17:18:50;20.30;99.90
14093;DHT22;7123;49.468;10.992;2022-10-30T17:21:20;20.20;99.90
14093;DHT22;7123;49.468;10.992;2022-10-30T17:23:50;20.20;99.90
14093;DHT22;7123;49.468;10.992;2022-10-30T17:26:17;20.10;99.90
14093;DHT22;7123;49.468;10.992;2022-10-30T17:28:46;20.10;99.90
14093;DHT22;7123;49.468;10.992;2022-10-30T17:31:27;20.00;99.90
14093;DHT22;7123;49.468;10.992;2022-10-30T17:36:40;19.90;99.90
14093;DHT22;7123;49.468;10.992;2022-10-30T17:39:08;19.90;99.90
14093;DHT22;7123;49.468;10.992;2022-10-30T17:41:35;19.90;99.90
14093;DHT22;7123;49.468;10.992;2022-10-30T17:44:02;19.90;99.90
14093;DHT22;7123;49.468;10.992;2022-10-30T17:46:29;19.90;99.90
14093;DHT22;7123;49.468;10.992;2022-10-30T17:48:57;19.90;99.90
14093;DHT22;7123;49.468;10.992;2022-10-30T17:51:25;19.90;99.90
14093;DHT22;7123;49.468;10.992;2022-10-30T17:53:52;19.80;99.90
14093;DHT22;7123;49.468;10.992;2022-10-30T17:56:27;19.80;99.90
14093;DHT22;7123;49.468;10.992;2022-10-30T17:58:58;19.80;99.90
14093;DHT22;7123;49.468;10.992;2022-10-30T18:01:25;19.70;99.90
14093;DHT22;7123;49.468;10.992;2022-10-30T18:03:53;19.70;99.90
14093;DHT22;7123;49.468;10.992;2022-10-30T18:06:23;19.70;99.90
14093;DHT22;7123;49.468;10.992;2022-10-30T18:08:51;19.70;99.90
14093;DHT22;7123;49.468;10.992;2022-10-30T18:11:21;19.70;99.90
14093;DHT22;7123;49.468;10.992;2022-10-30T18:13:49;19.60;99.90